Terminal Aerodrome Forecast
Issued by NWS Wilmington, OH

Current Version | Previous Version | Text Only | Print | Product List | Glossary Off
Versions: 1 2 3 4 5 6 7 8 9 10 11 12 13 14 15 16 17 18 19 20 21 22 23 24

043
FTUS41 KILN 170537
TAFCVG
TAF
KCVG 170537Z 1706/1812 18007KT P6SM BKN150
     FM170900 19006KT P6SM BKN200
     FM171400 21010G16KT P6SM SCT200
     FM180000 22006KT P6SM FEW250
     FM180900 21009KT P6SM BKN200=

USA.gov is the U.S. government's official web portal to all federal, state and local government web resources and services.